Data for 04/26/2006

Time Sea-Level Adjusted Pressure Absolute Pressure Temperature Relative Humidity Dew Point   
(mb) (inHg) (mb) (inHg) (C) (F) (%) (C) (F)
00:05 1017 30.03 846 24.98 7.2 44.9 60 -0 32
00:10 1017 30.03 846 24.98 7.3 45.1 64 0.9 33.6
00:15 1017 30.03 846 24.98 7.3 45.1 65 1.2 34.2
00:20 1017 30.03 846 24.98 7.2 45 64 0.9 33.6
00:25 1017 30.03 846 24.98 7.3 45.1 63 0.7 33.3
00:30 1017 30.03 846 24.98 7.1 44.8 66 1.2 34.1
00:35 1017 30.03 846 24.98 6.8 44.3 70 1.8 35.2
00:40 1017 30.03 846 24.98 6.5 43.7 74 2.2 35.9
00:45 1017 30.03 846 24.98 6.2 43.2 76 2.3 36.1
00:50 1017 30.03 846 24.98 5.9 42.7 77 2.2 36
00:55 1017 30.03 846 24.98 5.8 42.4 78 2.3 36.1
01:00 1017 30.03 846 24.98 5.7 42.3 78 2.3 36.1
01:05 1017 30.03 847 25.01 5.7 42.2 78 2.1 35.8
01:10 1017 30.03 847 25.01 5.7 42.2 79 2.3 36.2
01:15 1017 30.03 847 25.01 5.6 42.2 80 2.5 36.5
01:20 1017 30.03 847 25.01 5.6 42.1 81 2.7 36.8
01:25 1018 30.06 847 25.01 5.6 42.1 82 2.7 36.9
01:30 1018 30.06 847 25.01 5.6 42.2 81 2.6 36.6
01:35 1018 30.06 847 25.01 5.6 42.1 79 2.3 36.2
01:40 1018 30.06 847 25.01 5.6 42.2 81 2.6 36.7
01:45 1018 30.06 847 25.01 5.7 42.2 81 2.7 36.8
01:50 1018 30.06 847 25.01 5.7 42.2 81 2.7 36.8
01:55 1018 30.06 847 25.01 5.7 42.3 81 2.6 36.7
02:00 1018 30.06 847 25.01 5.7 42.3 81 2.8 37
02:05 1018 30.06 847 25.01 5.6 42.1 80 2.5 36.4
02:10 1018 30.06 847 25.01 5.4 41.7 82 2.5 36.5
02:15 1018 30.06 847 25.01 5.2 41.4 82 2.5 36.4
02:20 1018 30.06 847 25.01 5.1 41.2 83 2.4 36.3
02:25 1018 30.06 847 25.01 5 40.9 84 2.4 36.3
02:30 1018 30.06 847 25.01 5 41 84 2.4 36.4
02:35 1018 30.06 847 25.01 4.8 40.7 83 2.3 36.1
02:40 1018 30.06 847 25.01 4.7 40.5 84 2.3 36.2
02:45 1018 30.06 847 25.01 4.7 40.4 85 2.4 36.3
02:50 1018 30.06 847 25.01 4.7 40.4 85 2.3 36.1
02:55 1018 30.06 847 25.01 4.5 40.1 85 2.2 36
03:00 1017 30.03 847 25.01 4.4 40 86 2.2 36
03:05 1017 30.03 847 25.01 4.4 39.9 86 2.3 36.1
03:10 1017 30.03 847 25.01 4.3 39.7 86 2.2 35.9
03:15 1017 30.03 847 25.01 4.2 39.6 87 2.3 36.1
03:20 1017 30.03 847 25.01 4 39.2 89 2.3 36.1
03:25 1017 30.03 847 25.01 3.9 38.9 88 2.1 35.8
03:30 1017 30.03 847 25.01 3.8 38.8 88 2 35.7
03:35 1017 30.03 847 25.01 3.6 38.5 89 1.9 35.4
03:40 1017 30.03 847 25.01 3.4 38.1 89 1.8 35.2
03:45 1017 30.03 847 25.01 3.3 37.9 90 1.8 35.3
03:50 1017 30.03 847 25.01 3.2 37.8 91 1.9 35.4
03:55 1017 30.03 847 25.01 3.2 37.8 90 1.8 35.2
04:00 1017 30.03 847 25.01 3.3 38 90 1.8 35.3
04:05 1017 30.03 847 25.01 3.5 38.2 88 1.7 35.1
04:10 1017 30.03 847 25.01 3.5 38.2 89 1.8 35.2
04:15 1017 30.03 847 25.01 3.3 37.9 89 1.7 35
04:20 1017 30.03 847 25.01 3.3 37.9 88 1.5 34.7
04:25 1017 30.03 847 25.01 3.3 38 88 1.4 34.6
04:30 1017 30.03 847 25.01 3.2 37.7 89 1.6 34.8
04:35 1017 30.03 847 25.01 2.7 36.8 93 1.6 34.9
04:40 1017 30.03 847 25.01 2.6 36.7 91 1.4 34.5
04:45 1017 30.03 847 25.01 2.9 37.3 88 1.1 34
04:50 1017 30.03 846 24.98 3 37.4 88 1.1 34
04:55 1017 30.03 846 24.98 3 37.4 87 1.1 34
05:00 1017 30.03 847 25.01 2.8 37.1 88 1.1 34
05:05 1017 30.03 847 25.01 2.3 36.1 92 1.2 34.1
05:10 1018 30.06 847 25.01 2.2 35.9 92 1 33.9
05:15 1018 30.06 847 25.01 2.4 36.4 91 1.1 34
05:20 1017 30.03 847 25.01 2.6 36.6 90 1.1 34
05:25 1018 30.06 847 25.01 2.5 36.5 90 1 33.9
05:30 1017 30.03 847 25.01 2.6 36.7 90 1.1 34
05:35 1017 30.03 847 25.01 2.7 36.8 89 1 33.8
05:40 1017 30.03 847 25.01 2.9 37.2 87 1 33.7
05:45 1017 30.03 847 25.01 2.7 36.9 88 1 33.8
05:50 1017 30.03 847 25.01 2.6 36.7 89 0.9 33.7
05:55 1017 30.03 847 25.01 2.5 36.5 89 0.9 33.7
06:00 1017 30.03 847 25.01 2.1 35.8 90 0.7 33.3
06:05 1017 30.03 847 25.01 2.1 35.8 90 0.5 33
06:10 1017 30.03 847 25.01 2.1 35.8 89 0.4 32.8
06:15 1017 30.03 847 25.01 2 35.6 88 0.3 32.5
06:20 1018 30.06 847 25.01 1.6 34.9 91 0.3 32.6
06:25 1018 30.06 847 25.01 1.4 34.5 92 0.2 32.3
06:30 1018 30.06 847 25.01 2 35.5 89 0.3 32.5
06:35 1018 30.06 847 25.01 1.8 35.2 89 0.1 32.2
06:40 1018 30.06 847 25.01 1.3 34.4 91 0 32.1
06:45 1018 30.06 847 25.01 1.2 34.1 91 -0.1 31.9
06:50 1018 30.06 847 25.01 1.2 34.2 91 -0.1 31.8
06:55 1018 30.06 847 25.01 1.4 34.4 91 0 32.1
07:00 1018 30.06 847 25.01 1.6 34.8 90 0.1 32.2
07:05 1018 30.06 847 25.01 1.9 35.5 88 0.1 32.2
07:10 1018 30.06 847 25.01 1.8 35.2 89 0.1 32.2
07:15 1018 30.06 847 25.01 2 35.6 87 0.1 32.1
07:20 1018 30.06 847 25.01 2.4 36.3 85 0.2 32.3
07:25 1018 30.06 847 25.01 2.6 36.7 85 0.4 32.6
07:30 1018 30.06 847 25.01 2.7 36.9 84 0.3 32.6
07:35 1018 30.06 847 25.01 2.8 37 84 0.3 32.6
07:40 1018 30.06 847 25.01 3 37.5 83 0.4 32.7
07:45 1018 30.06 847 25.01 3.4 38.2 80 0.3 32.5
07:50 1018 30.06 847 25.01 4.2 39.5 76 0.2 32.4
07:55 1018 30.06 847 25.01 4.3 39.8 76 0.5 32.9
08:00 1018 30.06 847 25.01 4.5 40.2 74 0.4 32.7
08:05 1018 30.06 847 25.01 4.7 40.4 75 0.7 33.2
08:10 1018 30.06 847 25.01 5.2 41.3 74 0.9 33.6
08:15 1018 30.06 847 25.01 5.5 42 71 0.6 33.1
08:20 1018 30.06 847 25.01 6 42.7 68 0.5 32.9
08:25 1018 30.06 847 25.01 6 42.9 70 0.9 33.6
08:30 1018 30.06 847 25.01 6.2 43.1 63 -0.4 31.3
08:35 1018 30.06 847 25.01 6.5 43.8 62 -0.2 31.6
08:40 1018 30.06 847 25.01 7.3 45.1 60 0.2 32.3
08:45 1018 30.06 847 25.01 8 46.5 57 0 32
08:50 1018 30.06 847 25.01 7.8 46 62 1 33.9
08:55 1018 30.06 847 25.01 7.6 45.7 60 0.3 32.6
09:00 1018 30.06 847 25.01 7.1 44.7 63 0.5 32.8
09:05 1018 30.06 847 25.01 7.6 45.7 56 -0.5 31.1
09:10 1018 30.06 847 25.01 8.1 46.6 58 0.4 32.7
09:15 1018 30.06 847 25.01 8.6 47.5 53 -0.3 31.5
09:20 1018 30.06 847 25.01 9.3 48.8 53 0.2 32.3
09:25 1018 30.06 847 25.01 8.8 47.8 59 1.2 34.2
09:30 1018 30.06 847 25.01 8.5 47.2 56 0.3 32.5
09:35 1018 30.06 847 25.01 8.3 46.9 58 0.5 32.8
09:40 1018 30.06 847 25.01 8.6 47.6 56 0.5 32.9
09:45 1018 30.06 847 25.01 8.4 47.2 57 0.4 32.8
09:50 1018 30.06 847 25.01 8.5 47.2 57 0.6 33
09:55 1018 30.06 847 25.01 9.4 48.8 54 0.5 32.9
10:00 1018 30.06 847 25.01 9.3 48.8 55 0.8 33.4
10:05 1018 30.06 847 25.01 9 48.2 53 -0.1 31.9
10:10 1018 30.06 847 25.01 9.7 49.4 50 -0.2 31.6
10:15 1018 30.06 847 25.01 10.3 50.6 49 -0 32
10:20 1018 30.06 847 25.01 10.8 51.4 46 -0.2 31.6
10:25 1018 30.06 847 25.01 11.3 52.3 44 -0.5 31
10:30 1018 30.06 847 25.01 11.9 53.4 38 -1.8 28.7
10:35 1018 30.06 847 25.01 12 53.6 38 -1.9 28.6
10:40 1018 30.06 847 25.01 12.3 54.2 34 -3.2 26.2
10:45 1018 30.06 847 25.01 12.2 54 35 -2.6 27.3
10:50 1018 30.06 847 25.01 11.8 53.3 38 -2.1 28.2
10:55 1018 30.06 847 25.01 11.9 53.4 34 -3.2 26.2
11:00 1018 30.06 847 25.01 11.7 53 40 -1.3 29.6
11:05 1018 30.06 847 25.01 11.5 52.7 39 -1.9 28.6
11:10 1018 30.06 847 25.01 11.3 52.3 40 -1.8 28.8
11:15 1018 30.06 847 25.01 11.1 51.9 38 -2.5 27.5
11:20 1018 30.06 847 25.01 11 51.8 37 -3.2 26.2
11:25 1018 30.06 847 25.01 11.7 53 35 -3.2 26.2
11:30 1018 30.06 847 25.01 11.9 53.3 34 -3.3 26
11:35 1017 30.03 847 25.01 11.8 53.2 35 -3.2 26.2
11:40 1017 30.03 847 25.01 11.7 53 36 -3 26.7
11:45 1017 30.03 847 25.01 12.3 54.1 34 -3 26.5
11:50 1017 30.03 847 25.01 12.6 54.6 35 -2.3 27.9
11:55 1017 30.03 847 25.01 12.8 55 33 -2.9 26.8
12:00 1017 30.03 846 24.98 13.4 56.1 32 -2.9 26.8
12:05 1017 30.03 846 24.98 13.7 56.6 31 -3.2 26.2
12:10 1017 30.03 846 24.98 13.6 56.5 32 -2.9 26.8
12:15 1017 30.03 846 24.98 13.8 56.9 31 -2.9 26.7
12:20 1017 30.03 846 24.98 13 55.4 32 -3.2 26.2
12:25 1017 30.03 846 24.98 13.6 56.6 28 -4.4 24.1
12:30 1017 30.03 846 24.98 13.6 56.4 32 -3 26.7
12:35 1017 30.03 846 24.98 13.5 56.3 31 -3.2 26.3
12:40 1017 30.03 846 24.98 13.6 56.4 28 -4.6 23.8
12:45 1017 30.03 846 24.98 14.3 57.7 24 -5.9 21.3
12:50 1017 30.03 846 24.98 14.4 57.9 26 -4.8 23.3
12:55 1016 30 846 24.98 14.8 58.6 27 -3.8 25.2
13:00 1016 30 846 24.98 14.8 58.6 27 -3.8 25.1
13:05 1016 30 846 24.98 14.1 57.4 30 -3.2 26.3
13:10 1016 30 845 24.95 14.5 58 27 -4.2 24.4
13:15 1016 30 845 24.95 14.8 58.7 26 -4.3 24.2
13:20 1016 30 845 24.95 14.3 57.8 29 -3.5 25.6
13:25 1016 30 845 24.95 13.8 56.8 30 -3.5 25.7
13:30 1016 30 845 24.95 14.6 58.2 28 -3.9 25
13:35 1016 30 845 24.95 14.6 58.2 29 -3.4 25.9
13:40 1016 30 845 24.95 15.2 59.3 28 -3 26.7
13:45 1016 30 845 24.95 15.2 59.4 28 -3 26.7
13:50 1016 30 845 24.95 15.5 59.8 29 -2.6 27.2
13:55 1016 30 845 24.95 15.2 59.3 28 -3 26.6
14:00 1016 30 845 24.95 15.6 60 28 -3 26.6
14:05 1016 30 845 24.95 15.6 60.1 22 -6.2 20.8
14:10 1016 30 845 24.95 16 60.8 27 -2.9 26.8
14:15 1016 30 845 24.95 15.8 60.4 21 -6.3 20.6
14:20 1016 30 845 24.95 16.2 61.1 18 -8.4 16.8
14:25 1016 30 845 24.95 16.4 61.5 23 -5 23.1
14:30 1016 30 845 24.95 16.1 61 19 -7.6 18.3
14:35 1015 29.97 845 24.95 15.9 60.5 20 -6.8 19.7
14:40 1015 29.97 845 24.95 16.2 61.1 20 -7 19.4
14:45 1015 29.97 845 24.95 16.3 61.4 20 -6.6 20.2
14:50 1015 29.97 845 24.95 16.8 62.2 20 -6.2 20.8
14:55 1015 29.97 845 24.95 16.9 62.3 19 -6.8 19.7
15:00 1015 29.97 845 24.95 16.4 61.4 20 -6.9 19.6
15:05 1015 29.97 844 24.92 16.5 61.6 19 -7.2 19.1
15:10 1015 29.97 844 24.92 16.2 61.1 20 -7 19.3
15:15 1015 29.97 844 24.92 16.5 61.6 18 -7.5 18.5
15:20 1015 29.97 844 24.92 16.6 61.8 19 -7.3 18.8
15:25 1015 29.97 844 24.92 16.6 61.9 19 -6.7 20
15:30 1015 29.97 844 24.92 16.8 62.3 17 -8 17.6
15:35 1015 29.97 844 24.92 16.9 62.4 18 -7.5 18.5
15:40 1015 29.97 844 24.92 16.9 62.4 17 -8.1 17.4
15:45 1015 29.97 844 24.92 16.7 62.1 19 -6.9 19.7
15:50 1015 29.97 844 24.92 17 62.5 17 -8 17.6
15:55 1015 29.97 844 24.92 17.2 63 16 -9.1 15.5
16:00 1015 29.97 844 24.92 17.4 63.3 16 -8.5 16.7
16:05 1015 29.97 844 24.92 17.7 63.8 16 -8.4 16.8
16:10 1015 29.97 844 24.92 17.5 63.4 15 -9.3 15.2
16:15 1015 29.97 844 24.92 16.9 62.4 18 -7.9 17.9
16:20 1015 29.97 844 24.92 17 62.7 16 -8.9 15.9
16:25 1015 29.97 844 24.92 16.8 62.3 18 -7.5 18.5
16:30 1015 29.97 844 24.92 17 62.6 15 -9.8 14.4
16:35 1014 29.94 844 24.92 17.2 63 15 -9.4 15.1
16:40 1015 29.97 844 24.92 17.4 63.3 15 -9.2 15.5
16:45 1015 29.97 844 24.92 17.2 63 15 -9.3 15.3
16:50 1015 29.97 844 24.92 16.9 62.4 15 -9.8 14.3
16:55 1014 29.94 844 24.92 17.1 62.8 15 -9.5 14.8
17:00 1014 29.94 844 24.92 17 62.7 15 -10.1 13.9
17:05 1015 29.97 844 24.92 17.3 63.1 15 -9.5 15
17:10 1014 29.94 844 24.92 17.4 63.4 15 -9.5 14.9
17:15 1014 29.94 844 24.92 17.3 63.2 15 -9.5 14.9
17:20 1014 29.94 844 24.92 17.3 63.1 15 -9.3 15.2
17:25 1014 29.94 844 24.92 17.5 63.6 15 -9.3 15.2
17:30 1014 29.94 844 24.92 17.2 63 16 -8.9 15.9
17:35 1014 29.94 844 24.92 17.2 62.9 16 -9.1 15.7
17:40 1014 29.94 844 24.92 17.2 63 16 -9.1 15.6
17:45 1014 29.94 844 24.92 17.3 63.1 17 -8.2 17.3
17:50 1014 29.94 843 24.89 17.4 63.4 15 -9.1 15.7
17:55 1014 29.94 843 24.89 16.8 62.3 17 -8.3 17.1
18:00 1014 29.94 843 24.89 16.4 61.5 18 -8.1 17.3
18:05 1014 29.94 843 24.89 16.4 61.5 18 -7.6 18.3
18:10 1014 29.94 843 24.89 16.4 61.6 18 -7.6 18.4
18:15 1014 29.94 843 24.89 16.8 62.2 18 -8 17.7
18:20 1014 29.94 843 24.89 17.1 62.9 18 -7.3 18.9
18:25 1014 29.94 843 24.89 17.3 63.1 17 -7.8 18
18:30 1014 29.94 843 24.89 17 62.7 18 -7.4 18.8
18:35 1014 29.94 843 24.89 16.9 62.5 18 -7.7 18.2
18:40 1014 29.94 843 24.89 17 62.5 18 -7.4 18.7
18:45 1014 29.94 843 24.89 16.8 62.3 18 -7.4 18.7
18:50 1014 29.94 843 24.89 16.7 62.1 17 -8.2 17.2
18:55 1014 29.94 843 24.89 16.6 61.9 16 -9.1 15.7
19:00 1014 29.94 843 24.89 16.5 61.6 18 -7.9 17.7
19:05 1014 29.94 843 24.89 16.4 61.6 17 -8.3 17
19:10 1014 29.94 843 24.89 16.4 61.5 18 -7.7 18.1
19:15 1014 29.94 843 24.89 16.1 61 19 -7.2 19
19:20 1014 29.94 843 24.89 15.9 60.6 19 -7.6 18.3
19:25 1014 29.94 843 24.89 15.7 60.2 19 -7.5 18.5
19:30 1014 29.94 843 24.89 15.6 60 20 -7.5 18.4
19:35 1014 29.94 843 24.89 15.4 59.7 20 -7.3 18.8
19:40 1014 29.94 843 24.89 15.2 59.3 20 -7.4 18.7
19:45 1014 29.94 843 24.89 14.9 58.8 21 -7.4 18.7
19:50 1014 29.94 843 24.89 14.8 58.6 21 -7.4 18.7
19:55 1014 29.94 843 24.89 14.6 58.3 21 -7.4 18.7
20:00 1014 29.94 843 24.89 14.4 58 22 -7.2 19
20:05 1014 29.94 843 24.89 14.2 57.6 22 -7.3 18.9
20:10 1014 29.94 843 24.89 14.1 57.5 22 -7.3 18.9
20:15 1014 29.94 843 24.89 14 57.2 23 -6.9 19.6
20:20 1014 29.94 843 24.89 13.8 56.8 23 -6.7 19.9
20:25 1014 29.94 844 24.92 13.6 56.5 23 -7.1 19.3
20:30 1014 29.94 844 24.92 13.4 56.2 24 -6.7 19.9
20:35 1015 29.97 844 24.92 13.3 55.9 24 -6.8 19.7
20:40 1015 29.97 844 24.92 13.1 55.5 25 -6.6 20.1
20:45 1015 29.97 844 24.92 12.8 55 25 -6.5 20.3
20:50 1015 29.97 844 24.92 12.7 54.8 25 -6.6 20.2
20:55 1015 29.97 844 24.92 12.5 54.4 25 -6.9 19.5
21:00 1015 29.97 844 24.92 12.3 54.1 25 -7 19.5
21:05 1015 29.97 844 24.92 12.1 53.8 25 -7.3 18.9
21:10 1015 29.97 844 24.92 12 53.7 25 -7.4 18.7
21:15 1015 29.97 844 24.92 12 53.7 25 -7.3 18.9
21:20 1015 29.97 844 24.92 12.1 53.7 25 -7.3 18.9
21:25 1015 29.97 844 24.92 11.9 53.5 25 -7.3 18.9
21:30 1015 29.97 845 24.95 11.9 53.5 25 -7.2 19
21:35 1015 29.97 845 24.95 12 53.6 26 -7 19.4
21:40 1016 30 845 24.95 12 53.6 26 -7 19.3
21:45 1016 30 845 24.95 11.3 52.3 34 -4.1 24.6
21:50 1016 30 845 24.95 10.1 50.3 34 -5.1 22.8
21:55 1016 30 845 24.95 9.9 49.9 34 -5.1 22.8
22:00 1016 30 845 24.95 10 49.9 32 -5.7 21.7
22:05 1016 30 845 24.95 10.1 50.3 32 -5.8 21.5
22:10 1016 30 845 24.95 10.3 50.6 29 -6.7 19.9
22:15 1016 30 845 24.95 10.5 50.9 31 -6.1 21
22:20 1016 30 845 24.95 10.3 50.6 30 -6.4 20.5
22:25 1016 30 845 24.95 10.4 50.8 27 -7.6 18.3
22:30 1016 30 845 24.95 10.8 51.4 26 -7.7 18.1
22:35 1016 30 845 24.95 10.8 51.4 28 -7 19.4
22:40 1016 30 845 24.95 10.7 51.2 29 -6.7 20
22:45 1016 30 845 24.95 10.5 50.8 29 -7 19.4
22:50 1016 30 845 24.95 10.5 50.8 29 -7 19.5
22:55 1016 30 845 24.95 10.5 51 28 -7.1 19.3
23:00 1016 30 845 24.95 10.5 50.9 30 -6.4 20.4
23:05 1016 30 845 24.95 10.1 50.3 31 -6.4 20.6
23:10 1016 30 845 24.95 10 50.1 30 -6.8 19.7
23:15 1016 30 845 24.95 10.1 50.2 29 -7 19.5
23:20 1016 30 845 24.95 10.2 50.3 30 -6.8 19.7
23:25 1016 30 845 24.95 10.4 50.6 26 -8.3 17
23:30 1016 30 845 24.95 10.7 51.2 26 -8.2 17.3
23:35 1016 30 845 24.95 10.9 51.5 25 -8.4 16.9
23:40 1016 30 845 24.95 10.8 51.4 28 -7.1 19.2
23:45 1016 30 845 24.95 10.2 50.4 29 -7.1 19.2
23:50 1016 30 845 24.95 10.3 50.6 28 -7.5 18.5
23:55 1016 30 845 24.95 10.1 50.1 30 -6.6 20.2
24:00 1016 30 845 24.95 10.2 50.3 28 -7.5 18.5